sensor_id;sensor_type;location;lat;lon;timestamp;pressure;altitude;pressure_sealevel;temperature;humidity
79705;BME280;69940;53.120;8.764;2023-08-01T00:00:46;99827.00;;;18.08;87.64
79705;BME280;69940;53.120;8.764;2023-08-01T00:03:15;99823.00;;;18.09;87.55
79705;BME280;69940;53.120;8.764;2023-08-01T00:05:46;99820.00;;;18.09;87.50
79705;BME280;69940;53.120;8.764;2023-08-01T00:08:15;99815.00;;;18.09;87.49
79705;BME280;69940;53.120;8.764;2023-08-01T00:10:46;99810.00;;;18.10;87.57
79705;BME280;69940;53.120;8.764;2023-08-01T00:13:16;99806.00;;;18.10;87.56
79705;BME280;69940;53.120;8.764;2023-08-01T00:15:46;99803.00;;;18.10;87.58
79705;BME280;69940;53.120;8.764;2023-08-01T00:18:16;99801.00;;;18.10;87.55
79705;BME280;69940;53.120;8.764;2023-08-01T00:20:46;99795.00;;;18.11;87.53
79705;BME280;69940;53.120;8.764;2023-08-01T00:23:16;99792.00;;;18.11;87.47
79705;BME280;69940;53.120;8.764;2023-08-01T00:25:46;99789.00;;;18.12;87.47
79705;BME280;69940;53.120;8.764;2023-08-01T00:28:16;99784.00;;;18.12;87.52
79705;BME280;69940;53.120;8.764;2023-08-01T00:30:46;99779.00;;;18.13;87.48
79705;BME280;69940;53.120;8.764;2023-08-01T00:33:16;99775.00;;;18.14;87.44
79705;BME280;69940;53.120;8.764;2023-08-01T00:35:53;99771.00;;;18.14;87.51
79705;BME280;69940;53.120;8.764;2023-08-01T00:38:16;99766.00;;;18.14;87.49
79705;BME280;69940;53.120;8.764;2023-08-01T00:40:46;99763.00;;;18.15;87.48
79705;BME280;69940;53.120;8.764;2023-08-01T00:43:16;99761.00;;;18.15;87.43
79705;BME280;69940;53.120;8.764;2023-08-01T00:45:46;99757.00;;;18.15;87.31
79705;BME280;69940;53.120;8.764;2023-08-01T00:48:16;99755.00;;;18.15;87.35
79705;BME280;69940;53.120;8.764;2023-08-01T00:50:46;99753.00;;;18.14;87.29
79705;BME280;69940;53.120;8.764;2023-08-01T00:53:16;99750.00;;;18.14;87.26
79705;BME280;69940;53.120;8.764;2023-08-01T00:55:46;99748.00;;;18.13;87.20
79705;BME280;69940;53.120;8.764;2023-08-01T00:58:16;99745.00;;;18.11;87.25
79705;BME280;69940;53.120;8.764;2023-08-01T01:00:46;99744.00;;;18.10;87.31
79705;BME280;69940;53.120;8.764;2023-08-01T01:03:16;99743.00;;;18.09;87.27
79705;BME280;69940;53.120;8.764;2023-08-01T01:05:52;99740.00;;;18.08;87.36
79705;BME280;69940;53.120;8.764;2023-08-01T01:08:16;99736.00;;;18.08;87.35
79705;BME280;69940;53.120;8.764;2023-08-01T01:10:46;99731.00;;;18.07;87.24
79705;BME280;69940;53.120;8.764;2023-08-01T01:13:16;99727.00;;;18.07;87.28
79705;BME280;69940;53.120;8.764;2023-08-01T01:15:46;99722.00;;;18.07;87.22
79705;BME280;69940;53.120;8.764;2023-08-01T01:18:15;99717.00;;;18.06;87.25
79705;BME280;69940;53.120;8.764;2023-08-01T01:20:46;99713.00;;;18.05;87.23
79705;BME280;69940;53.120;8.764;2023-08-01T01:23:16;99709.00;;;18.04;87.21
79705;BME280;69940;53.120;8.764;2023-08-01T01:25:46;99707.00;;;18.04;87.20
79705;BME280;69940;53.120;8.764;2023-08-01T01:28:16;99705.00;;;18.03;87.20
79705;BME280;69940;53.120;8.764;2023-08-01T01:30:46;99703.00;;;18.02;87.19
79705;BME280;69940;53.120;8.764;2023-08-01T01:33:17;99700.00;;;18.02;87.14
79705;BME280;69940;53.120;8.764;2023-08-01T01:35:47;99697.00;;;18.01;87.15
79705;BME280;69940;53.120;8.764;2023-08-01T01:38:16;99694.00;;;18.01;87.07
79705;BME280;69940;53.120;8.764;2023-08-01T01:40:46;99693.00;;;18.00;87.05
79705;BME280;69940;53.120;8.764;2023-08-01T01:43:16;99692.00;;;18.00;87.03
79705;BME280;69940;53.120;8.764;2023-08-01T01:45:46;99690.00;;;18.00;87.03
79705;BME280;69940;53.120;8.764;2023-08-01T01:48:16;99690.00;;;18.00;87.04
79705;BME280;69940;53.120;8.764;2023-08-01T01:50:46;99689.00;;;17.99;86.87
79705;BME280;69940;53.120;8.764;2023-08-01T01:53:16;99688.00;;;17.98;86.95
79705;BME280;69940;53.120;8.764;2023-08-01T01:55:46;99686.00;;;17.98;86.96
79705;BME280;69940;53.120;8.764;2023-08-01T01:58:16;99685.00;;;17.97;86.90
79705;BME280;69940;53.120;8.764;2023-08-01T02:00:46;99682.00;;;17.97;86.86
79705;BME280;69940;53.120;8.764;2023-08-01T02:03:16;99678.00;;;17.97;86.78
79705;BME280;69940;53.120;8.764;2023-08-01T02:05:45;99676.00;;;17.97;86.82
79705;BME280;69940;53.120;8.764;2023-08-01T02:08:16;99673.00;;;17.96;86.90
79705;BME280;69940;53.120;8.764;2023-08-01T02:10:46;99671.00;;;17.95;86.82
79705;BME280;69940;53.120;8.764;2023-08-01T02:13:16;99667.00;;;17.94;86.81
79705;BME280;69940;53.120;8.764;2023-08-01T02:15:46;99663.00;;;17.94;86.86
79705;BME280;69940;53.120;8.764;2023-08-01T02:18:15;99659.00;;;17.93;86.75
79705;BME280;69940;53.120;8.764;2023-08-01T02:20:46;99655.00;;;17.93;86.72
79705;BME280;69940;53.120;8.764;2023-08-01T02:23:15;99651.00;;;17.93;86.64
79705;BME280;69940;53.120;8.764;2023-08-01T02:25:45;99649.00;;;17.92;86.59
79705;BME280;69940;53.120;8.764;2023-08-01T02:28:16;99647.00;;;17.92;86.65
79705;BME280;69940;53.120;8.764;2023-08-01T02:30:45;99644.00;;;17.92;86.56
79705;BME280;69940;53.120;8.764;2023-08-01T02:33:16;99642.00;;;17.91;86.66
79705;BME280;69940;53.120;8.764;2023-08-01T02:35:46;99640.00;;;17.91;86.59
79705;BME280;69940;53.120;8.764;2023-08-01T02:38:16;99637.00;;;17.90;86.65
79705;BME280;69940;53.120;8.764;2023-08-01T02:40:46;99635.00;;;17.90;86.61
79705;BME280;69940;53.120;8.764;2023-08-01T02:43:16;99634.00;;;17.90;86.67
79705;BME280;69940;53.120;8.764;2023-08-01T02:45:46;99631.00;;;17.90;86.54
79705;BME280;69940;53.120;8.764;2023-08-01T02:48:16;99627.00;;;17.89;86.49
79705;BME280;69940;53.120;8.764;2023-08-01T02:50:46;99625.00;;;17.88;86.52
79705;BME280;69940;53.120;8.764;2023-08-01T02:53:16;99621.00;;;17.87;86.53
79705;BME280;69940;53.120;8.764;2023-08-01T02:55:47;99620.00;;;17.87;86.58
79705;BME280;69940;53.120;8.764;2023-08-01T02:58:16;99619.00;;;17.86;86.53
79705;BME280;69940;53.120;8.764;2023-08-01T03:00:48;99618.00;;;17.85;86.67
79705;BME280;69940;53.120;8.764;2023-08-01T03:03:16;99617.00;;;17.85;86.69
79705;BME280;69940;53.120;8.764;2023-08-01T03:05:45;99614.00;;;17.83;85.87
79705;BME280;69940;53.120;8.764;2023-08-01T03:08:16;99611.00;;;17.81;85.60
79705;BME280;69940;53.120;8.764;2023-08-01T03:10:46;99609.00;;;17.79;85.34
79705;BME280;69940;53.120;8.764;2023-08-01T03:13:16;99606.00;;;17.77;85.11
79705;BME280;69940;53.120;8.764;2023-08-01T03:15:46;99603.00;;;17.74;85.03
79705;BME280;69940;53.120;8.764;2023-08-01T03:18:15;99600.00;;;17.72;85.21
79705;BME280;69940;53.120;8.764;2023-08-01T03:20:46;99595.00;;;17.69;85.30
79705;BME280;69940;53.120;8.764;2023-08-01T03:23:16;99592.00;;;17.68;85.55
79705;BME280;69940;53.120;8.764;2023-08-01T03:25:46;99589.00;;;17.66;85.76
79705;BME280;69940;53.120;8.764;2023-08-01T03:28:16;99586.00;;;17.66;85.89
79705;BME280;69940;53.120;8.764;2023-08-01T03:30:46;99584.00;;;17.65;85.87
79705;BME280;69940;53.120;8.764;2023-08-01T03:33:16;99583.00;;;17.66;86.00
79705;BME280;69940;53.120;8.764;2023-08-01T03:35:46;99581.00;;;17.67;86.21
79705;BME280;69940;53.120;8.764;2023-08-01T03:38:16;99584.00;;;17.68;86.41
79705;BME280;69940;53.120;8.764;2023-08-01T03:40:46;99587.00;;;17.69;86.41
79705;BME280;69940;53.120;8.764;2023-08-01T03:43:15;99590.00;;;17.70;86.48
79705;BME280;69940;53.120;8.764;2023-08-01T03:45:46;99593.00;;;17.71;86.56
79705;BME280;69940;53.120;8.764;2023-08-01T03:48:16;99595.00;;;17.72;86.58
79705;BME280;69940;53.120;8.764;2023-08-01T03:50:46;99598.00;;;17.73;86.54
79705;BME280;69940;53.120;8.764;2023-08-01T03:53:16;99599.00;;;17.73;86.56
79705;BME280;69940;53.120;8.764;2023-08-01T03:55:47;99600.00;;;17.73;86.53
79705;BME280;69940;53.120;8.764;2023-08-01T03:58:16;99602.00;;;17.73;86.49
79705;BME280;69940;53.120;8.764;2023-08-01T04:00:46;99603.00;;;17.73;86.50
79705;BME280;69940;53.120;8.764;2023-08-01T04:03:16;99604.00;;;17.73;86.50
79705;BME280;69940;53.120;8.764;2023-08-01T04:05:46;99604.00;;;17.73;86.48
79705;BME280;69940;53.120;8.764;2023-08-01T04:08:16;99603.00;;;17.73;86.35
79705;BME280;69940;53.120;8.764;2023-08-01T04:10:46;99601.00;;;17.73;86.38
79705;BME280;69940;53.120;8.764;2023-08-01T04:13:16;99600.00;;;17.73;86.35
79705;BME280;69940;53.120;8.764;2023-08-01T04:15:46;99601.00;;;17.74;86.28
79705;BME280;69940;53.120;8.764;2023-08-01T04:18:16;99602.00;;;17.74;86.20
79705;BME280;69940;53.120;8.764;2023-08-01T04:20:46;99603.00;;;17.74;86.28
79705;BME280;69940;53.120;8.764;2023-08-01T04:23:16;99604.00;;;17.74;86.21
79705;BME280;69940;53.120;8.764;2023-08-01T04:25:46;99604.00;;;17.75;86.21
79705;BME280;69940;53.120;8.764;2023-08-01T04:28:16;99605.00;;;17.75;86.24
79705;BME280;69940;53.120;8.764;2023-08-01T04:30:49;99606.00;;;17.75;86.15
79705;BME280;69940;53.120;8.764;2023-08-01T04:33:16;99608.00;;;17.75;86.22
79705;BME280;69940;53.120;8.764;2023-08-01T04:35:46;99608.00;;;17.74;86.32
79705;BME280;69940;53.120;8.764;2023-08-01T04:38:16;99610.00;;;17.74;86.37
79705;BME280;69940;53.120;8.764;2023-08-01T04:40:46;99612.00;;;17.73;86.14
79705;BME280;69940;53.120;8.764;2023-08-01T04:43:16;99614.00;;;17.71;85.89
79705;BME280;69940;53.120;8.764;2023-08-01T04:45:46;99614.00;;;17.68;85.46
79705;BME280;69940;53.120;8.764;2023-08-01T04:48:16;99615.00;;;17.64;84.87
79705;BME280;69940;53.120;8.764;2023-08-01T04:50:46;99615.00;;;17.60;84.56
79705;BME280;69940;53.120;8.764;2023-08-01T04:53:16;99614.00;;;17.55;84.15
79705;BME280;69940;53.120;8.764;2023-08-01T04:55:46;99614.00;;;17.52;83.79
79705;BME280;69940;53.120;8.764;2023-08-01T04:58:16;99613.00;;;17.48;83.74
79705;BME280;69940;53.120;8.764;2023-08-01T05:00:46;99612.00;;;17.46;83.68
79705;BME280;69940;53.120;8.764;2023-08-01T05:03:16;99611.00;;;17.44;83.72
79705;BME280;69940;53.120;8.764;2023-08-01T05:05:45;99609.00;;;17.42;83.85
79705;BME280;69940;53.120;8.764;2023-08-01T05:08:16;99609.00;;;17.41;83.83
79705;BME280;69940;53.120;8.764;2023-08-01T05:10:46;99608.00;;;17.40;83.87
79705;BME280;69940;53.120;8.764;2023-08-01T05:13:16;99608.00;;;17.40;83.92
79705;BME280;69940;53.120;8.764;2023-08-01T05:15:48;99606.00;;;17.40;84.08
79705;BME280;69940;53.120;8.764;2023-08-01T05:18:17;99606.00;;;17.40;84.16
79705;BME280;69940;53.120;8.764;2023-08-01T05:20:46;99605.00;;;17.40;84.19
79705;BME280;69940;53.120;8.764;2023-08-01T05:23:16;99602.00;;;17.41;84.26
79705;BME280;69940;53.120;8.764;2023-08-01T05:25:46;99600.00;;;17.43;84.10
79705;BME280;69940;53.120;8.764;2023-08-01T05:28:16;99598.00;;;17.45;83.91
79705;BME280;69940;53.120;8.764;2023-08-01T05:30:47;99596.00;;;17.47;83.71
79705;BME280;69940;53.120;8.764;2023-08-01T05:33:16;99595.00;;;17.48;83.74
79705;BME280;69940;53.120;8.764;2023-08-01T05:35:45;99594.00;;;17.49;83.74
79705;BME280;69940;53.120;8.764;2023-08-01T05:38:16;99593.00;;;17.50;83.72
79705;BME280;69940;53.120;8.764;2023-08-01T05:40:46;99591.00;;;17.50;83.66
79705;BME280;69940;53.120;8.764;2023-08-01T05:43:16;99592.00;;;17.50;83.77
79705;BME280;69940;53.120;8.764;2023-08-01T05:45:46;99592.00;;;17.50;83.81
79705;BME280;69940;53.120;8.764;2023-08-01T05:48:15;99593.00;;;17.49;83.77
79705;BME280;69940;53.120;8.764;2023-08-01T05:50:46;99594.00;;;17.49;83.78
79705;BME280;69940;53.120;8.764;2023-08-01T05:53:16;99596.00;;;17.48;83.74
79705;BME280;69940;53.120;8.764;2023-08-01T05:55:46;99597.00;;;17.46;83.87
79705;BME280;69940;53.120;8.764;2023-08-01T05:58:16;99600.00;;;17.45;83.94
79705;BME280;69940;53.120;8.764;2023-08-01T06:00:46;99603.00;;;17.43;84.00
79705;BME280;69940;53.120;8.764;2023-08-01T06:03:17;99606.00;;;17.42;84.09
79705;BME280;69940;53.120;8.764;2023-08-01T06:05:46;99609.00;;;17.42;84.19
79705;BME280;69940;53.120;8.764;2023-08-01T06:08:16;99611.00;;;17.42;84.21
79705;BME280;69940;53.120;8.764;2023-08-01T06:10:46;99613.00;;;17.42;84.30
79705;BME280;69940;53.120;8.764;2023-08-01T06:13:16;99614.00;;;17.44;84.29
79705;BME280;69940;53.120;8.764;2023-08-01T06:15:46;99615.00;;;17.47;84.33
79705;BME280;69940;53.120;8.764;2023-08-01T06:18:16;99617.00;;;17.51;84.29
79705;BME280;69940;53.120;8.764;2023-08-01T06:20:46;99620.00;;;17.55;84.35
79705;BME280;69940;53.120;8.764;2023-08-01T06:23:16;99621.00;;;17.58;84.40
79705;BME280;69940;53.120;8.764;2023-08-01T06:25:46;99622.00;;;17.61;84.40
79705;BME280;69940;53.120;8.764;2023-08-01T06:28:16;99622.00;;;17.63;84.39
79705;BME280;69940;53.120;8.764;2023-08-01T06:30:49;99623.00;;;17.66;84.32
79705;BME280;69940;53.120;8.764;2023-08-01T06:33:16;99625.00;;;17.70;84.36
79705;BME280;69940;53.120;8.764;2023-08-01T06:35:45;99627.00;;;17.72;84.43
79705;BME280;69940;53.120;8.764;2023-08-01T06:38:16;99627.00;;;17.75;84.46
79705;BME280;69940;53.120;8.764;2023-08-01T06:40:46;99628.00;;;17.78;84.38
79705;BME280;69940;53.120;8.764;2023-08-01T06:43:16;99629.00;;;17.83;84.47
79705;BME280;69940;53.120;8.764;2023-08-01T06:45:46;99630.00;;;17.88;84.25
79705;BME280;69940;53.120;8.764;2023-08-01T06:48:15;99632.00;;;17.94;84.20
79705;BME280;69940;53.120;8.764;2023-08-01T06:50:46;99633.00;;;18.00;83.81
79705;BME280;69940;53.120;8.764;2023-08-01T06:53:16;99634.00;;;18.05;83.90
79705;BME280;69940;53.120;8.764;2023-08-01T06:55:45;99635.00;;;18.11;83.76
79705;BME280;69940;53.120;8.764;2023-08-01T06:58:16;99633.00;;;18.19;83.44
79705;BME280;69940;53.120;8.764;2023-08-01T07:00:45;99633.00;;;18.26;83.14
79705;BME280;69940;53.120;8.764;2023-08-01T07:03:16;99633.00;;;18.32;83.13
79705;BME280;69940;53.120;8.764;2023-08-01T07:05:45;99633.00;;;18.35;83.08
79705;BME280;69940;53.120;8.764;2023-08-01T07:08:16;99633.00;;;18.34;83.15
79705;BME280;69940;53.120;8.764;2023-08-01T07:10:46;99632.00;;;18.32;83.46
79705;BME280;69940;53.120;8.764;2023-08-01T07:13:17;99632.00;;;18.29;83.56
79705;BME280;69940;53.120;8.764;2023-08-01T07:15:46;99633.00;;;18.26;83.23
79705;BME280;69940;53.120;8.764;2023-08-01T07:18:16;99635.00;;;18.23;83.25
79705;BME280;69940;53.120;8.764;2023-08-01T07:20:45;99637.00;;;18.23;83.18
79705;BME280;69940;53.120;8.764;2023-08-01T07:23:16;99641.00;;;18.24;82.72
79705;BME280;69940;53.120;8.764;2023-08-01T07:25:46;99645.00;;;18.27;82.29
79705;BME280;69940;53.120;8.764;2023-08-01T07:28:16;99648.00;;;18.30;81.89
79705;BME280;69940;53.120;8.764;2023-08-01T07:30:46;99650.00;;;18.35;81.95
79705;BME280;69940;53.120;8.764;2023-08-01T07:33:16;99651.00;;;18.41;81.29
79705;BME280;69940;53.120;8.764;2023-08-01T07:35:45;99653.00;;;18.45;80.01
79705;BME280;69940;53.120;8.764;2023-08-01T07:38:16;99654.00;;;18.47;79.85
79705;BME280;69940;53.120;8.764;2023-08-01T07:40:46;99655.00;;;18.48;79.41
79705;BME280;69940;53.120;8.764;2023-08-01T07:43:16;99656.00;;;18.48;79.96
79705;BME280;69940;53.120;8.764;2023-08-01T07:45:46;99658.00;;;18.47;80.50
79705;BME280;69940;53.120;8.764;2023-08-01T07:48:16;99659.00;;;18.47;80.43
79705;BME280;69940;53.120;8.764;2023-08-01T07:50:46;99660.00;;;18.46;80.42
79705;BME280;69940;53.120;8.764;2023-08-01T07:53:16;99659.00;;;18.44;80.58
79705;BME280;69940;53.120;8.764;2023-08-01T07:55:46;99657.00;;;18.42;80.42
79705;BME280;69940;53.120;8.764;2023-08-01T07:58:16;99656.00;;;18.40;80.21
79705;BME280;69940;53.120;8.764;2023-08-01T08:00:45;99656.00;;;18.38;79.79
79705;BME280;69940;53.120;8.764;2023-08-01T08:03:16;99655.00;;;18.38;79.73
79705;BME280;69940;53.120;8.764;2023-08-01T08:05:46;99654.00;;;18.39;79.51
79705;BME280;69940;53.120;8.764;2023-08-01T08:08:16;99654.00;;;18.42;79.48
79705;BME280;69940;53.120;8.764;2023-08-01T08:10:46;99654.00;;;18.47;79.55
79705;BME280;69940;53.120;8.764;2023-08-01T08:13:16;99655.00;;;18.53;78.85
79705;BME280;69940;53.120;8.764;2023-08-01T08:15:46;99656.00;;;18.59;78.75
79705;BME280;69940;53.120;8.764;2023-08-01T08:18:16;99657.00;;;18.66;78.86
79705;BME280;69940;53.120;8.764;2023-08-01T08:20:46;99658.00;;;18.70;78.46
79705;BME280;69940;53.120;8.764;2023-08-01T08:23:16;99659.00;;;18.74;78.53
79705;BME280;69940;53.120;8.764;2023-08-01T08:25:48;99659.00;;;18.78;78.49
79705;BME280;69940;53.120;8.764;2023-08-01T08:28:27;99658.00;;;18.82;78.30
79705;BME280;69940;53.120;8.764;2023-08-01T08:30:47;99659.00;;;18.86;78.17
79705;BME280;69940;53.120;8.764;2023-08-01T08:33:20;99657.00;;;18.92;78.17
79705;BME280;69940;53.120;8.764;2023-08-01T08:35:46;99655.00;;;19.00;77.41
79705;BME280;69940;53.120;8.764;2023-08-01T08:38:16;99658.00;;;19.10;76.71
79705;BME280;69940;53.120;8.764;2023-08-01T08:41:02;99655.00;;;19.19;76.08
79705;BME280;69940;53.120;8.764;2023-08-01T08:43:17;99654.00;;;19.27;76.36
79705;BME280;69940;53.120;8.764;2023-08-01T08:45:50;99654.00;;;19.32;76.44
79705;BME280;69940;53.120;8.764;2023-08-01T08:48:18;99656.00;;;19.34;76.20
79705;BME280;69940;53.120;8.764;2023-08-01T08:50:46;99657.00;;;19.34;75.85
79705;BME280;69940;53.120;8.764;2023-08-01T08:53:16;99658.00;;;19.32;75.28
79705;BME280;69940;53.120;8.764;2023-08-01T08:55:46;99658.00;;;19.30;75.63
79705;BME280;69940;53.120;8.764;2023-08-01T08:58:16;99661.00;;;19.27;75.40
79705;BME280;69940;53.120;8.764;2023-08-01T09:00:46;99661.00;;;19.25;75.31
79705;BME280;69940;53.120;8.764;2023-08-01T09:03:16;99662.00;;;19.26;75.23
79705;BME280;69940;53.120;8.764;2023-08-01T09:05:54;99662.00;;;19.29;75.50
79705;BME280;69940;53.120;8.764;2023-08-01T09:08:19;99662.00;;;19.35;75.42
79705;BME280;69940;53.120;8.764;2023-08-01T09:10:47;99660.00;;;19.41;74.81
79705;BME280;69940;53.120;8.764;2023-08-01T09:13:16;99659.00;;;19.46;75.26
79705;BME280;69940;53.120;8.764;2023-08-01T09:15:46;99656.00;;;19.50;75.34
79705;BME280;69940;53.120;8.764;2023-08-01T09:18:16;99654.00;;;19.53;75.47
79705;BME280;69940;53.120;8.764;2023-08-01T09:20:47;99652.00;;;19.56;75.00
79705;BME280;69940;53.120;8.764;2023-08-01T09:23:17;99650.00;;;19.62;73.89
79705;BME280;69940;53.120;8.764;2023-08-01T09:25:46;99647.00;;;19.69;73.50
79705;BME280;69940;53.120;8.764;2023-08-01T09:28:17;99642.00;;;19.78;72.29
79705;BME280;69940;53.120;8.764;2023-08-01T09:30:51;99641.00;;;19.86;71.50
79705;BME280;69940;53.120;8.764;2023-08-01T09:33:16;99640.00;;;19.91;71.20
79705;BME280;69940;53.120;8.764;2023-08-01T09:35:49;99638.00;;;19.93;71.36
79705;BME280;69940;53.120;8.764;2023-08-01T09:38:19;99638.00;;;19.93;72.01
79705;BME280;69940;53.120;8.764;2023-08-01T09:40:46;99639.00;;;19.89;73.30
79705;BME280;69940;53.120;8.764;2023-08-01T09:43:16;99639.00;;;19.81;75.34
79705;BME280;69940;53.120;8.764;2023-08-01T09:45:52;99638.00;;;19.70;75.46
79705;BME280;69940;53.120;8.764;2023-08-01T09:48:26;99640.00;;;19.58;76.44
79705;BME280;69940;53.120;8.764;2023-08-01T09:50:46;99641.00;;;19.50;77.00
79705;BME280;69940;53.120;8.764;2023-08-01T09:53:16;99640.00;;;19.43;76.31
79705;BME280;69940;53.120;8.764;2023-08-01T09:55:49;99640.00;;;19.38;77.05
79705;BME280;69940;53.120;8.764;2023-08-01T09:58:17;99644.00;;;19.34;77.44
79705;BME280;69940;53.120;8.764;2023-08-01T10:00:46;99647.00;;;19.28;77.19
79705;BME280;69940;53.120;8.764;2023-08-01T10:03:16;99650.00;;;19.22;77.19
79705;BME280;69940;53.120;8.764;2023-08-01T10:05:46;99652.00;;;19.14;77.52
79705;BME280;69940;53.120;8.764;2023-08-01T10:08:16;99652.00;;;19.06;78.15
79705;BME280;69940;53.120;8.764;2023-08-01T10:10:46;99652.00;;;18.99;78.79
79705;BME280;69940;53.120;8.764;2023-08-01T10:13:17;99650.00;;;18.95;78.63
79705;BME280;69940;53.120;8.764;2023-08-01T10:15:46;99649.00;;;18.96;78.63
79705;BME280;69940;53.120;8.764;2023-08-01T10:18:16;99648.00;;;18.96;78.63
79705;BME280;69940;53.120;8.764;2023-08-01T10:20:46;99648.00;;;18.97;79.04
79705;BME280;69940;53.120;8.764;2023-08-01T10:23:16;99646.00;;;19.00;79.63
79705;BME280;69940;53.120;8.764;2023-08-01T10:25:46;99645.00;;;19.05;78.70
79705;BME280;69940;53.120;8.764;2023-08-01T10:28:16;99645.00;;;19.13;78.07
79705;BME280;69940;53.120;8.764;2023-08-01T10:30:45;99643.00;;;19.23;77.53
79705;BME280;69940;53.120;8.764;2023-08-01T10:33:16;99641.00;;;19.36;77.52
79705;BME280;69940;53.120;8.764;2023-08-01T10:35:46;99641.00;;;19.51;76.86
79705;BME280;69940;53.120;8.764;2023-08-01T10:38:16;99642.00;;;19.62;75.51
79705;BME280;69940;53.120;8.764;2023-08-01T10:40:46;99642.00;;;19.69;74.89
79705;BME280;69940;53.120;8.764;2023-08-01T10:43:22;99643.00;;;19.74;75.17
79705;BME280;69940;53.120;8.764;2023-08-01T10:45:46;99648.00;;;19.77;75.07
79705;BME280;69940;53.120;8.764;2023-08-01T10:48:16;99649.00;;;19.78;74.31
79705;BME280;69940;53.120;8.764;2023-08-01T10:50:54;99648.00;;;19.79;74.25
79705;BME280;69940;53.120;8.764;2023-08-01T10:53:16;99648.00;;;19.82;74.46
79705;BME280;69940;53.120;8.764;2023-08-01T10:55:46;99647.00;;;19.83;73.18
79705;BME280;69940;53.120;8.764;2023-08-01T10:58:16;99647.00;;;19.85;73.96
79705;BME280;69940;53.120;8.764;2023-08-01T11:00:46;99647.00;;;19.88;73.61
79705;BME280;69940;53.120;8.764;2023-08-01T11:03:16;99649.00;;;19.91;72.94
79705;BME280;69940;53.120;8.764;2023-08-01T11:05:57;99649.00;;;19.92;73.24
79705;BME280;69940;53.120;8.764;2023-08-01T11:08:18;99649.00;;;19.94;73.56
79705;BME280;69940;53.120;8.764;2023-08-01T11:11:22;99649.00;;;19.94;73.51
79705;BME280;69940;53.120;8.764;2023-08-01T11:13:52;99650.00;;;19.98;73.60
79705;BME280;69940;53.120;8.764;2023-08-01T11:16:22;99652.00;;;20.01;72.04
79705;BME280;69940;53.120;8.764;2023-08-01T11:18:52;99654.00;;;20.06;72.16
79705;BME280;69940;53.120;8.764;2023-08-01T11:21:27;99656.00;;;20.11;72.08
79705;BME280;69940;53.120;8.764;2023-08-01T11:23:52;99656.00;;;20.16;72.05
79705;BME280;69940;53.120;8.764;2023-08-01T11:26:21;99658.00;;;20.20;71.90
79705;BME280;69940;53.120;8.764;2023-08-01T11:28:51;99660.00;;;20.24;71.92
79705;BME280;69940;53.120;8.764;2023-08-01T11:31:22;99660.00;;;20.26;71.82
79705;BME280;69940;53.120;8.764;2023-08-01T11:33:20;99661.00;;;20.27;72.05
79705;BME280;69940;53.120;8.764;2023-08-01T11:35:46;99661.00;;;20.27;71.61
79705;BME280;69940;53.120;8.764;2023-08-01T11:38:16;99663.00;;;20.27;71.89
79705;BME280;69940;53.120;8.764;2023-08-01T11:40:46;99663.00;;;20.28;72.27
79705;BME280;69940;53.120;8.764;2023-08-01T11:43:16;99663.00;;;20.29;72.10
79705;BME280;69940;53.120;8.764;2023-08-01T11:45:49;99664.00;;;20.29;72.75
79705;BME280;69940;53.120;8.764;2023-08-01T11:48:16;99664.00;;;20.26;72.24
79705;BME280;69940;53.120;8.764;2023-08-01T11:50:45;99663.00;;;20.20;72.39
79705;BME280;69940;53.120;8.764;2023-08-01T11:53:22;99666.00;;;20.16;73.05
79705;BME280;69940;53.120;8.764;2023-08-01T11:55:46;99667.00;;;20.13;72.84
79705;BME280;69940;53.120;8.764;2023-08-01T11:58:15;99667.00;;;20.11;72.81
79705;BME280;69940;53.120;8.764;2023-08-01T12:00:45;99670.00;;;20.12;72.95
79705;BME280;69940;53.120;8.764;2023-08-01T12:03:15;99672.00;;;20.13;72.84
79705;BME280;69940;53.120;8.764;2023-08-01T12:05:48;99674.00;;;20.14;72.52
79705;BME280;69940;53.120;8.764;2023-08-01T12:08:16;99675.00;;;20.15;72.94
79705;BME280;69940;53.120;8.764;2023-08-01T12:10:46;99677.00;;;20.16;73.15
79705;BME280;69940;53.120;8.764;2023-08-01T12:13:22;99679.00;;;20.16;73.00
79705;BME280;69940;53.120;8.764;2023-08-01T12:15:46;99683.00;;;20.15;73.33
79705;BME280;69940;53.120;8.764;2023-08-01T12:18:26;99684.00;;;20.12;73.76
79705;BME280;69940;53.120;8.764;2023-08-01T12:20:45;99687.00;;;20.07;73.87
79705;BME280;69940;53.120;8.764;2023-08-01T12:23:16;99688.00;;;20.00;74.16
79705;BME280;69940;53.120;8.764;2023-08-01T12:25:46;99693.00;;;19.92;74.61
79705;BME280;69940;53.120;8.764;2023-08-01T12:28:16;99700.00;;;19.84;76.19
79705;BME280;69940;53.120;8.764;2023-08-01T12:30:45;99705.00;;;19.75;77.04
79705;BME280;69940;53.120;8.764;2023-08-01T12:33:16;99715.00;;;19.64;76.99
79705;BME280;69940;53.120;8.764;2023-08-01T12:35:46;99721.00;;;19.53;77.58
79705;BME280;69940;53.120;8.764;2023-08-01T12:38:16;99726.00;;;19.40;77.23
79705;BME280;69940;53.120;8.764;2023-08-01T12:40:46;99729.00;;;19.30;77.58
79705;BME280;69940;53.120;8.764;2023-08-01T12:43:18;99731.00;;;19.23;78.36
79705;BME280;69940;53.120;8.764;2023-08-01T12:45:46;99732.00;;;19.21;78.41
79705;BME280;69940;53.120;8.764;2023-08-01T12:48:16;99733.00;;;19.25;78.52
79705;BME280;69940;53.120;8.764;2023-08-01T12:50:46;99734.00;;;19.34;78.45
79705;BME280;69940;53.120;8.764;2023-08-01T12:53:16;99736.00;;;19.44;77.62
79705;BME280;69940;53.120;8.764;2023-08-01T12:55:46;99738.00;;;19.51;77.27
79705;BME280;69940;53.120;8.764;2023-08-01T12:58:16;99741.00;;;19.56;77.26
79705;BME280;69940;53.120;8.764;2023-08-01T13:00:46;99742.00;;;19.57;77.68
79705;BME280;69940;53.120;8.764;2023-08-01T13:03:16;99744.00;;;19.56;78.36
79705;BME280;69940;53.120;8.764;2023-08-01T13:05:46;99745.00;;;19.54;78.52
79705;BME280;69940;53.120;8.764;2023-08-01T13:08:16;99750.00;;;19.50;79.07
79705;BME280;69940;53.120;8.764;2023-08-01T13:10:47;99753.00;;;19.44;79.97
79705;BME280;69940;53.120;8.764;2023-08-01T13:13:16;99756.00;;;19.39;80.70